AirNav   Air Wisconsin Up To $57,000 Bonus
 
 1230 users online  

3VA1 The Meadows Airport
Warrenton, Virginia, USA

GOING TO WARRENTON?


FAA INFORMATION EFFECTIVE 09 SEPTEMBER 2021

Location

FAA Identifier: 3VA1
Lat/Long: 38-46-27.4180N 077-47-58.9760W
38-46.456967N 077-47.982933W
38.7742828,-77.7997156
(estimated)
Elevation: 584 ft. / 178.0 m (surveyed)
Variation: 09W (1985)
From city: 3 miles N of WARRENTON, VA
Time zone: UTC -4 (UTC -5 during Standard Time)
Zip code: 20187

Airport Operations

Airport use: Private use. Permission required prior to landing
Activation date: 10/1974
Control tower: no
ARTCC: WASHINGTON CENTER
FSS: LEESBURG FLIGHT SERVICE STATION
Attendance: UNATNDD
Wind indicator: yes
Segmented circle: no

Airport Communications

WX AWOS-3 at HWY (12 nm S): 120.350 (540-788-4078)
WX AWOS-3PT at HEF (14 nm E): PHONE 703-361-6160
WX AWOS-3 at CJR (15 nm S): 119.325 (540-727-0523)
WX ASOS at IAD (19 nm NE): PHONE 703-661-2990

Nearby radio navigation aids

VOR radial/distance  VOR name  Freq  Var
CSNr027/8.6CASANOVA VORTAC116.3006W
AMLr246/18.3ARMEL VOR/DME113.5008W
LDNr110/19.6LINDEN VORTAC114.3006W
BRVr330/33.6BROOKE VORTAC114.5009W
DCAr271/36.0WASHINGTON VOR/DME111.0009W
MRBr183/36.7MARTINSBURG VORTAC112.1007W

 
NDB name  Hdg/Dist  Freq  Var  ID
NAILR024/19.835110WMSQ -- ... --.-
CAVERNS091/31.824509WLUA .-.. ..- .-
GEORGETOWN263/32.932309WGTN --. - -.
DAVEE291/33.022309WDAA -.. .- .-
SHANNON342/34.623710WEZF . --.. ..-.
OXONN282/36.133211WDCA -.. -.-. .-

Airport Services

Airframe service: MAJOR
Powerplant service: MAJOR

Runway Information

Runway 6/24

Dimensions: 2100 x 125 ft. / 640 x 38 m
Surface: turf
RUNWAY 6  RUNWAY 24
Traffic pattern: leftleft

Airport Ownership and Management from official FAA records

Ownership: Privately-owned
Owner: K. W. HYDE
7099 GLENN CURTISS LANE
WARRENTON, VA 22187
Phone 703-347-1909
Manager: K. W. HYDE
7099 GLENN CURTISS LANE
WARRENTON, VA 22187
Phone 540-347-1909

Airport Operational Statistics

Aircraft based on the field: 1
Single engine airplanes: 1
    

Additional Remarks

AVOID FLYING OVER HOUSES ON APCH OR TAKEOFF.
FOR CD CTC POTOMAC APCH AT 866-709-4993

Instrument Procedures

There are no published instrument procedures at 3VA1.

Some nearby airports with instrument procedures:

KHWY - Warrenton-Fauquier Airport (12 nm S)
2VG2 - Upperville Airport (12 nm N)
KHEF - Manassas Regional Airport/Harry P. Davis Field (14 nm E)
KCJR - Culpeper Regional Airport (15 nm S)
9VA5 - Bluegrass Heliport (18 nm N)
KIAD - Washington Dulles International Airport (19 nm NE)
 
Loc | Ops | Rwys | IFR | FBO | Links
Com | Nav | Svcs | Stats | Notes
Area around 3VA1 (The Meadows Airport)
 
Road maps at: MapQuest Bing Google
 
Aerial photo
WARNING: Photo may not be current or correct
Aerial photo of 3VA1 (The Meadows Airport)
Photo by Steve Beste
Photo taken 17-Jul-2020
looking south.

Do you have a better or more recent aerial photo of The Meadows Airport that you would like to share? If so, please send us your photo.

 
Sectional chart

 
Airport distance calculator
Flying to The Meadows Airport? Find the distance to fly.

From to 3VA1

Sunrise and sunset
Times for 23-Sep-2021
 Local
(UTC-4)
 Zulu
(UTC)
Morning civil twilight06:3410:34
Sunrise07:0111:01
Sunset19:0623:06
Evening civil twilight19:3323:33

Current date and time
Zulu (UTC)  23-Sep-2021 23:16:59
Local (UTC-4)  23-Sep-2021 19:16:59
 
METAR
KHWY 
12nm S 
232255Z AUTO 33003KT 10SM BKN048 BKN050 19/14 A2995 RMK AO2 T01900135
KHEF 
14nm E 
232256Z 34009KT 10SM BKN048 OVC060 20/11 A2996 RMK AO2 SLP149 T02000111 PNO $
KIAD 
19nm NE 
232252Z 32011KT 10SM BKN050 19/09 A2996 RMK AO2 SLP143 T01890094 $
KJYO 
21nm NE 
232255Z AUTO 34010KT 10SM OVC065 18/11 A2998 RMK AO2
KCJR 
22nm SW 
232255Z AUTO 00000KT 10SM SCT050 20/12 A2996 RMK AO2 T02000118
KFRR 
23nm W 
232255Z AUTO 10SM CLR 16/07 A2997 RMK AO1
TAF
KIAD 
19nm NE 
232101Z 2321/2424 31010KT P6SM SCT050 FM240000 32006KT P6SM SCT130 FM241400 29004KT P6SM SKC
NOTAMs
Click for the latest NOTAMs
NOTAMs are issued by the DoD/FAA and will open in a separate window not controlled by AirNav.

 

 
 

Would you like to see your business listed on this page?

 If your business provides an interesting product or service to pilots, flight crews, aircraft, or users of the The Meadows Airport, you should consider listing it here.  To start the listing process, click on the button below
 
Add a business
 

Other Pages about The Meadows Airport

Update a link
 
Copyright © AirNav, LLC. All rights reserved. Privacy Policy  Contact